sensor_id;sensor_type;location;lat;lon;timestamp;pressure;altitude;pressure_sealevel;temperature;humidity
75192;BME280;63771;52.580;9.734;2023-07-29T00:01:35;100362.91;;;18.64;97.93
75192;BME280;63771;52.580;9.734;2023-07-29T00:04:01;100363.72;;;18.63;98.70
75192;BME280;63771;52.580;9.734;2023-07-29T00:06:26;100366.22;;;18.62;98.70
75192;BME280;63771;52.580;9.734;2023-07-29T00:08:52;100355.00;;;18.61;98.99
75192;BME280;63771;52.580;9.734;2023-07-29T00:11:17;100356.66;;;18.59;99.25
75192;BME280;63771;52.580;9.734;2023-07-29T00:13:43;100364.53;;;18.62;99.20
75192;BME280;63771;52.580;9.734;2023-07-29T00:16:08;100366.28;;;18.63;99.58
75192;BME280;63771;52.580;9.734;2023-07-29T00:18:33;100364.69;;;18.65;99.38
75192;BME280;63771;52.580;9.734;2023-07-29T00:20:59;100359.50;;;18.65;99.47
75192;BME280;63771;52.580;9.734;2023-07-29T00:23:24;100358.69;;;18.66;99.11
75192;BME280;63771;52.580;9.734;2023-07-29T00:25:49;100355.28;;;18.67;99.17
75192;BME280;63771;52.580;9.734;2023-07-29T00:28:15;100359.56;;;18.67;99.00
75192;BME280;63771;52.580;9.734;2023-07-29T00:30:40;100355.28;;;18.67;98.92
75192;BME280;63771;52.580;9.734;2023-07-29T00:33:05;100350.06;;;18.66;98.90
75192;BME280;63771;52.580;9.734;2023-07-29T00:35:31;100351.75;;;18.65;99.11
75192;BME280;63771;52.580;9.734;2023-07-29T00:37:56;100345.72;;;18.65;98.68
75192;BME280;63771;52.580;9.734;2023-07-29T00:40:22;100359.44;;;18.64;98.57
75192;BME280;63771;52.580;9.734;2023-07-29T00:42:48;100355.91;;;18.62;99.14
75192;BME280;63771;52.580;9.734;2023-07-29T00:45:14;100348.91;;;18.59;99.38
75192;BME280;63771;52.580;9.734;2023-07-29T00:47:41;100353.09;;;18.57;99.21
75192;BME280;63771;52.580;9.734;2023-07-29T00:50:09;100356.50;;;18.56;99.69
75192;BME280;63771;52.580;9.734;2023-07-29T00:52:34;100362.44;;;18.54;99.73
75192;BME280;63771;52.580;9.734;2023-07-29T00:55:00;100363.34;;;18.54;99.94
75192;BME280;63771;52.580;9.734;2023-07-29T00:57:25;100354.69;;;18.54;100.00
75192;BME280;63771;52.580;9.734;2023-07-29T00:59:52;100356.47;;;18.55;99.89
75192;BME280;63771;52.580;9.734;2023-07-29T01:02:17;100352.03;;;18.52;99.60
75192;BME280;63771;52.580;9.734;2023-07-29T01:04:43;100356.31;;;18.51;99.74
75192;BME280;63771;52.580;9.734;2023-07-29T01:07:21;100350.25;;;18.51;99.30
75192;BME280;63771;52.580;9.734;2023-07-29T01:10:07;100342.50;;;18.51;99.51
75192;BME280;63771;52.580;9.734;2023-07-29T01:12:48;100339.00;;;18.49;99.29
75192;BME280;63771;52.580;9.734;2023-07-29T01:15:19;100345.91;;;18.50;99.46
75192;BME280;63771;52.580;9.734;2023-07-29T01:17:54;100342.41;;;18.48;99.11
75192;BME280;63771;52.580;9.734;2023-07-29T01:20:21;100348.28;;;18.45;99.64
75192;BME280;63771;52.580;9.734;2023-07-29T01:22:49;100346.59;;;18.46;99.22
75192;BME280;63771;52.580;9.734;2023-07-29T01:25:14;100344.78;;;18.43;99.53
75192;BME280;63771;52.580;9.734;2023-07-29T01:27:45;100342.91;;;18.41;99.70
75192;BME280;63771;52.580;9.734;2023-07-29T01:30:11;100339.31;;;18.37;99.78
75192;BME280;63771;52.580;9.734;2023-07-29T01:32:43;100340.22;;;18.38;100.00
75192;BME280;63771;52.580;9.734;2023-07-29T01:35:31;100345.44;;;18.39;99.97
75192;BME280;63771;52.580;9.734;2023-07-29T01:38:05;100343.75;;;18.40;99.71
75192;BME280;63771;52.580;9.734;2023-07-29T01:40:32;100341.16;;;18.40;100.00
75192;BME280;63771;52.580;9.734;2023-07-29T01:42:58;100336.81;;;18.39;100.00
75192;BME280;63771;52.580;9.734;2023-07-29T01:45:24;100336.88;;;18.40;100.00
75192;BME280;63771;52.580;9.734;2023-07-29T01:47:53;100342.09;;;18.42;100.00
75192;BME280;63771;52.580;9.734;2023-07-29T01:50:18;100336.94;;;18.42;100.00
75192;BME280;63771;52.580;9.734;2023-07-29T01:52:43;100336.16;;;18.43;100.00
75192;BME280;63771;52.580;9.734;2023-07-29T01:55:09;100337.91;;;18.44;100.00
75192;BME280;63771;52.580;9.734;2023-07-29T01:57:34;100331.91;;;18.45;100.00
75192;BME280;63771;52.580;9.734;2023-07-29T01:59:59;100331.09;;;18.46;100.00
75192;BME280;63771;52.580;9.734;2023-07-29T02:02:25;100338.03;;;18.47;100.00
75192;BME280;63771;52.580;9.734;2023-07-29T02:04:50;100329.47;;;18.48;100.00
75192;BME280;63771;52.580;9.734;2023-07-29T02:07:18;100333.72;;;18.47;100.00
75192;BME280;63771;52.580;9.734;2023-07-29T02:09:44;100313.88;;;18.46;100.00
75192;BME280;63771;52.580;9.734;2023-07-29T02:12:09;100315.66;;;18.47;100.00
75192;BME280;63771;52.580;9.734;2023-07-29T02:14:34;100321.78;;;18.49;100.00
75192;BME280;63771;52.580;9.734;2023-07-29T02:17:00;100320.97;;;18.50;100.00
75192;BME280;63771;52.580;9.734;2023-07-29T02:19:25;100318.44;;;18.52;100.00
75192;BME280;63771;52.580;9.734;2023-07-29T02:21:50;100310.69;;;18.52;99.96
75192;BME280;63771;52.580;9.734;2023-07-29T02:24:16;100302.94;;;18.52;100.00
75192;BME280;63771;52.580;9.734;2023-07-29T02:26:41;100313.41;;;18.55;100.00
75192;BME280;63771;52.580;9.734;2023-07-29T02:29:06;100308.19;;;18.54;100.00
75192;BME280;63771;52.580;9.734;2023-07-29T02:31:32;100310.81;;;18.55;100.00
75192;BME280;63771;52.580;9.734;2023-07-29T02:33:57;100300.44;;;18.54;100.00
75192;BME280;63771;52.580;9.734;2023-07-29T02:36:23;100304.63;;;18.51;100.00
75192;BME280;63771;52.580;9.734;2023-07-29T02:38:48;100305.50;;;18.52;100.00
75192;BME280;63771;52.580;9.734;2023-07-29T02:41:14;100304.69;;;18.53;99.76
75192;BME280;63771;52.580;9.734;2023-07-29T02:43:42;100296.06;;;18.52;99.79
75192;BME280;63771;52.580;9.734;2023-07-29T02:46:07;100299.47;;;18.51;100.00
75192;BME280;63771;52.580;9.734;2023-07-29T02:48:32;100305.59;;;18.54;100.00
75192;BME280;63771;52.580;9.734;2023-07-29T02:50:58;100303.81;;;18.52;100.00
75192;BME280;63771;52.580;9.734;2023-07-29T02:53:24;100301.22;;;18.52;100.00
75192;BME280;63771;52.580;9.734;2023-07-29T02:55:50;100301.22;;;18.52;100.00
75192;BME280;63771;52.580;9.734;2023-07-29T02:58:15;100296.94;;;18.53;100.00
75192;BME280;63771;52.580;9.734;2023-07-29T03:00:41;100291.78;;;18.53;100.00
75192;BME280;63771;52.580;9.734;2023-07-29T03:03:09;100292.59;;;18.52;99.57
75192;BME280;63771;52.580;9.734;2023-07-29T03:05:34;100298.66;;;18.52;99.69
75192;BME280;63771;52.580;9.734;2023-07-29T03:08:00;100300.34;;;18.52;99.33
75192;BME280;63771;52.580;9.734;2023-07-29T03:10:25;100304.63;;;18.51;99.43
75192;BME280;63771;52.580;9.734;2023-07-29T03:12:50;100307.16;;;18.50;100.00
75192;BME280;63771;52.580;9.734;2023-07-29T03:15:16;100314.03;;;18.49;100.00
75192;BME280;63771;52.580;9.734;2023-07-29T03:17:41;100312.28;;;18.48;99.78
75192;BME280;63771;52.580;9.734;2023-07-29T03:20:07;100307.16;;;18.50;99.46
75192;BME280;63771;52.580;9.734;2023-07-29T03:22:32;100314.91;;;18.50;99.63
75192;BME280;63771;52.580;9.734;2023-07-29T03:24:58;100305.47;;;18.50;99.94
75192;BME280;63771;52.580;9.734;2023-07-29T03:27:23;100295.94;;;18.49;100.00
75192;BME280;63771;52.580;9.734;2023-07-29T03:29:48;100301.16;;;18.51;99.91
75192;BME280;63771;52.580;9.734;2023-07-29T03:32:14;100308.03;;;18.50;100.00
75192;BME280;63771;52.580;9.734;2023-07-29T03:34:39;100301.22;;;18.52;99.87
75192;BME280;63771;52.580;9.734;2023-07-29T03:37:05;100306.47;;;18.54;99.49
75192;BME280;63771;52.580;9.734;2023-07-29T03:39:31;100303.91;;;18.54;99.94
75192;BME280;63771;52.580;9.734;2023-07-29T03:41:57;100302.19;;;18.55;99.43
75192;BME280;63771;52.580;9.734;2023-07-29T03:44:22;100296.16;;;18.54;99.78
75192;BME280;63771;52.580;9.734;2023-07-29T03:46:47;100293.56;;;18.54;100.00
75192;BME280;63771;52.580;9.734;2023-07-29T03:49:12;100291.03;;;18.56;99.97
75192;BME280;63771;52.580;9.734;2023-07-29T03:51:38;100293.69;;;18.57;100.00
75192;BME280;63771;52.580;9.734;2023-07-29T03:54:03;100290.22;;;18.57;99.69
75192;BME280;63771;52.580;9.734;2023-07-29T03:56:28;100292.84;;;18.58;99.64
75192;BME280;63771;52.580;9.734;2023-07-29T03:59:02;100292.84;;;18.58;100.00
75192;BME280;63771;52.580;9.734;2023-07-29T04:01:28;100301.53;;;18.59;100.00
75192;BME280;63771;52.580;9.734;2023-07-29T04:03:53;100291.25;;;18.60;99.93
75192;BME280;63771;52.580;9.734;2023-07-29T04:06:19;100295.59;;;18.61;100.00
75192;BME280;63771;52.580;9.734;2023-07-29T04:08:45;100299.94;;;18.62;100.00
75192;BME280;63771;52.580;9.734;2023-07-29T04:11:10;100292.16;;;18.62;100.00
75192;BME280;63771;52.580;9.734;2023-07-29T04:13:35;100290.34;;;18.60;100.00
75192;BME280;63771;52.580;9.734;2023-07-29T04:16:03;100290.47;;;18.63;100.00
75192;BME280;63771;52.580;9.734;2023-07-29T04:18:28;100289.59;;;18.62;100.00
75192;BME280;63771;52.580;9.734;2023-07-29T04:20:54;100294.75;;;18.62;100.00
75192;BME280;63771;52.580;9.734;2023-07-29T04:23:19;100295.63;;;18.63;100.00
75192;BME280;63771;52.580;9.734;2023-07-29T04:25:44;100284.41;;;18.62;100.00
75192;BME280;63771;52.580;9.734;2023-07-29T04:28:09;100280.13;;;18.63;100.00
75192;BME280;63771;52.580;9.734;2023-07-29T04:30:35;100281.94;;;18.64;100.00
75192;BME280;63771;52.580;9.734;2023-07-29T04:33:00;100267.31;;;18.64;99.98
75192;BME280;63771;52.580;9.734;2023-07-29T04:35:25;100268.19;;;18.65;100.00
75192;BME280;63771;52.580;9.734;2023-07-29T04:37:51;100268.09;;;18.63;100.00
75192;BME280;63771;52.580;9.734;2023-07-29T04:40:16;100267.31;;;18.64;100.00
75192;BME280;63771;52.580;9.734;2023-07-29T04:42:41;100277.63;;;18.64;100.00
75192;BME280;63771;52.580;9.734;2023-07-29T04:45:07;100273.34;;;18.65;100.00
75192;BME280;63771;52.580;9.734;2023-07-29T04:47:32;100278.56;;;18.66;100.00
75192;BME280;63771;52.580;9.734;2023-07-29T04:49:57;100276.00;;;18.66;100.00
75192;BME280;63771;52.580;9.734;2023-07-29T04:52:23;100270.81;;;18.66;100.00
75192;BME280;63771;52.580;9.734;2023-07-29T04:54:48;100282.91;;;18.67;100.00
75192;BME280;63771;52.580;9.734;2023-07-29T04:57:13;100282.03;;;18.67;100.00
75192;BME280;63771;52.580;9.734;2023-07-29T04:59:39;100287.28;;;18.68;100.00
75192;BME280;63771;52.580;9.734;2023-07-29T05:02:04;100288.25;;;18.70;100.00
75192;BME280;63771;52.580;9.734;2023-07-29T05:04:30;100271.00;;;18.69;100.00
75192;BME280;63771;52.580;9.734;2023-07-29T05:06:55;100277.91;;;18.70;100.00
75192;BME280;63771;52.580;9.734;2023-07-29T05:09:20;100274.50;;;18.71;100.00
75192;BME280;63771;52.580;9.734;2023-07-29T05:11:46;100268.50;;;18.72;100.00
75192;BME280;63771;52.580;9.734;2023-07-29T05:14:16;100262.53;;;18.73;100.00
75192;BME280;63771;52.580;9.734;2023-07-29T05:16:42;100264.31;;;18.74;100.00
75192;BME280;63771;52.580;9.734;2023-07-29T05:19:07;100260.91;;;18.75;100.00
75192;BME280;63771;52.580;9.734;2023-07-29T05:21:33;100254.97;;;18.78;100.00
75192;BME280;63771;52.580;9.734;2023-07-29T05:23:59;100261.00;;;18.78;100.00
75192;BME280;63771;52.580;9.734;2023-07-29T05:26:24;100261.97;;;18.81;100.00
75192;BME280;63771;52.580;9.734;2023-07-29T05:28:49;100255.16;;;18.83;100.00
75192;BME280;63771;52.580;9.734;2023-07-29T05:31:15;100260.38;;;18.84;100.00
75192;BME280;63771;52.580;9.734;2023-07-29T05:33:40;100253.63;;;18.88;100.00
75192;BME280;63771;52.580;9.734;2023-07-29T05:36:05;100255.41;;;18.89;100.00
75192;BME280;63771;52.580;9.734;2023-07-29T05:38:31;100259.16;;;18.95;100.00
75192;BME280;63771;52.580;9.734;2023-07-29T05:40:56;100253.19;;;18.98;100.00
75192;BME280;63771;52.580;9.734;2023-07-29T05:43:24;100253.34;;;19.01;100.00
75192;BME280;63771;52.580;9.734;2023-07-29T05:45:49;100239.56;;;19.02;100.00
75192;BME280;63771;52.580;9.734;2023-07-29T05:48:16;100244.84;;;19.05;100.00
75192;BME280;63771;52.580;9.734;2023-07-29T05:50:41;100234.66;;;19.08;100.00
75192;BME280;63771;52.580;9.734;2023-07-29T05:53:07;100233.75;;;19.08;100.00
75192;BME280;63771;52.580;9.734;2023-07-29T05:55:32;100239.94;;;19.11;100.00
75192;BME280;63771;52.580;9.734;2023-07-29T05:57:58;100245.22;;;19.14;100.00
75192;BME280;63771;52.580;9.734;2023-07-29T06:00:23;100240.06;;;19.14;100.00
75192;BME280;63771;52.580;9.734;2023-07-29T06:02:48;100247.13;;;19.18;100.00
75192;BME280;63771;52.580;9.734;2023-07-29T06:05:14;100247.25;;;19.21;100.00
75192;BME280;63771;52.580;9.734;2023-07-29T06:07:39;100245.66;;;19.25;100.00
75192;BME280;63771;52.580;9.734;2023-07-29T06:10:09;100254.41;;;19.28;100.00
75192;BME280;63771;52.580;9.734;2023-07-29T06:12:36;100252.75;;;19.30;100.00
75192;BME280;63771;52.580;9.734;2023-07-29T06:15:02;100252.03;;;19.33;100.00
75192;BME280;63771;52.580;9.734;2023-07-29T06:17:27;100259.00;;;19.36;100.00
75192;BME280;63771;52.580;9.734;2023-07-29T06:19:52;100262.47;;;19.36;100.00
75192;BME280;63771;52.580;9.734;2023-07-29T06:22:18;100265.13;;;19.38;100.00
75192;BME280;63771;52.580;9.734;2023-07-29T06:24:43;100261.72;;;19.39;100.00
75192;BME280;63771;52.580;9.734;2023-07-29T06:27:08;100259.22;;;19.42;100.00
75192;BME280;63771;52.580;9.734;2023-07-29T06:29:34;100244.53;;;19.41;100.00
75192;BME280;63771;52.580;9.734;2023-07-29T06:31:59;100245.41;;;19.41;99.96
75192;BME280;63771;52.580;9.734;2023-07-29T06:34:24;100253.25;;;19.43;100.00
75192;BME280;63771;52.580;9.734;2023-07-29T06:36:50;100258.53;;;19.46;100.00
75192;BME280;63771;52.580;9.734;2023-07-29T06:39:15;100255.13;;;19.47;99.78
75192;BME280;63771;52.580;9.734;2023-07-29T06:41:40;100257.00;;;19.51;100.00
75192;BME280;63771;52.580;9.734;2023-07-29T06:44:05;100258.84;;;19.53;99.82
75192;BME280;63771;52.580;9.734;2023-07-29T06:46:31;100251.19;;;19.56;100.00
75192;BME280;63771;52.580;9.734;2023-07-29T06:48:56;100260.88;;;19.61;100.00
75192;BME280;63771;52.580;9.734;2023-07-29T06:51:22;100258.31;;;19.62;100.00
75192;BME280;63771;52.580;9.734;2023-07-29T06:53:47;100255.88;;;19.65;100.00
75192;BME280;63771;52.580;9.734;2023-07-29T06:56:12;100261.03;;;19.65;100.00
75192;BME280;63771;52.580;9.734;2023-07-29T06:58:38;100258.50;;;19.67;100.00
75192;BME280;63771;52.580;9.734;2023-07-29T07:01:03;100265.63;;;19.72;100.00
75192;BME280;63771;52.580;9.734;2023-07-29T07:03:28;100266.56;;;19.74;100.00
75192;BME280;63771;52.580;9.734;2023-07-29T07:05:54;100261.50;;;19.77;100.00
75192;BME280;63771;52.580;9.734;2023-07-29T07:08:19;100262.44;;;19.79;100.00
75192;BME280;63771;52.580;9.734;2023-07-29T07:10:46;100261.72;;;19.84;100.00
75192;BME280;63771;52.580;9.734;2023-07-29T07:13:12;100265.34;;;19.89;100.00
75192;BME280;63771;52.580;9.734;2023-07-29T07:15:37;100269.00;;;19.94;100.00
75192;BME280;63771;52.580;9.734;2023-07-29T07:18:02;100262.28;;;19.99;100.00
75192;BME280;63771;52.580;9.734;2023-07-29T07:20:28;100270.19;;;20.02;100.00
75192;BME280;63771;52.580;9.734;2023-07-29T07:22:54;100259.09;;;20.06;100.00
75192;BME280;63771;52.580;9.734;2023-07-29T07:25:19;100263.59;;;20.10;100.00
75192;BME280;63771;52.580;9.734;2023-07-29T07:27:44;100261.97;;;20.14;100.00
75192;BME280;63771;52.580;9.734;2023-07-29T07:30:10;100257.75;;;20.16;100.00
75192;BME280;63771;52.580;9.734;2023-07-29T07:32:35;100263.09;;;20.20;100.00
75192;BME280;63771;52.580;9.734;2023-07-29T07:35:01;100256.25;;;20.22;100.00
75192;BME280;63771;52.580;9.734;2023-07-29T07:37:26;100256.31;;;20.25;99.93
75192;BME280;63771;52.580;9.734;2023-07-29T07:39:52;100258.13;;;20.26;98.96
75192;BME280;63771;52.580;9.734;2023-07-29T07:42:17;100255.63;;;20.29;98.99
75192;BME280;63771;52.580;9.734;2023-07-29T07:44:43;100258.28;;;20.31;98.86
75192;BME280;63771;52.580;9.734;2023-07-29T07:47:08;100254.91;;;20.33;98.80
75192;BME280;63771;52.580;9.734;2023-07-29T07:49:33;100260.19;;;20.37;99.20
75192;BME280;63771;52.580;9.734;2023-07-29T07:51:59;100255.09;;;20.40;98.99
75192;BME280;63771;52.580;9.734;2023-07-29T07:54:24;100256.06;;;20.42;98.46
75192;BME280;63771;52.580;9.734;2023-07-29T07:56:49;100252.69;;;20.44;98.29
75192;BME280;63771;52.580;9.734;2023-07-29T07:59:15;100248.63;;;20.51;98.41
75192;BME280;63771;52.580;9.734;2023-07-29T08:01:40;100246.97;;;20.53;98.90
75192;BME280;63771;52.580;9.734;2023-07-29T08:04:05;100231.50;;;20.56;97.75
75192;BME280;63771;52.580;9.734;2023-07-29T08:06:32;100236.84;;;20.61;97.77
75192;BME280;63771;52.580;9.734;2023-07-29T08:08:58;100236.09;;;20.63;97.33
75192;BME280;63771;52.580;9.734;2023-07-29T08:11:23;100235.34;;;20.67;95.79
75192;BME280;63771;52.580;9.734;2023-07-29T08:13:49;100236.31;;;20.71;95.16
75192;BME280;63771;52.580;9.734;2023-07-29T08:16:14;100234.78;;;20.76;96.18
75192;BME280;63771;52.580;9.734;2023-07-29T08:18:40;100236.59;;;20.78;96.25
75192;BME280;63771;52.580;9.734;2023-07-29T08:21:05;100240.16;;;20.82;96.26
75192;BME280;63771;52.580;9.734;2023-07-29T08:23:32;100243.72;;;20.85;96.13
75192;BME280;63771;52.580;9.734;2023-07-29T08:26:00;100242.97;;;20.88;95.99
75192;BME280;63771;52.580;9.734;2023-07-29T08:28:31;100247.22;;;20.86;94.30
75192;BME280;63771;52.580;9.734;2023-07-29T08:30:56;100255.78;;;20.83;92.90
75192;BME280;63771;52.580;9.734;2023-07-29T08:33:22;100260.03;;;20.81;93.15
75192;BME280;63771;52.580;9.734;2023-07-29T08:35:47;100246.97;;;20.78;92.45
75192;BME280;63771;52.580;9.734;2023-07-29T08:38:13;100242.53;;;20.76;92.48
75192;BME280;63771;52.580;9.734;2023-07-29T08:40:43;100244.25;;;20.75;92.40
75192;BME280;63771;52.580;9.734;2023-07-29T08:43:11;100244.25;;;20.75;92.70
75192;BME280;63771;52.580;9.734;2023-07-29T08:45:39;100245.19;;;20.77;93.86
75192;BME280;63771;52.580;9.734;2023-07-29T08:48:08;100249.66;;;20.81;94.03
75192;BME280;63771;52.580;9.734;2023-07-29T08:50:36;100240.25;;;20.85;93.90
75192;BME280;63771;52.580;9.734;2023-07-29T08:53:04;100231.69;;;20.88;94.33
75192;BME280;63771;52.580;9.734;2023-07-29T08:55:29;100237.03;;;20.92;94.49
75192;BME280;63771;52.580;9.734;2023-07-29T08:57:57;100230.22;;;20.96;94.69
75192;BME280;63771;52.580;9.734;2023-07-29T09:00:22;100236.44;;;21.01;94.82
75192;BME280;63771;52.580;9.734;2023-07-29T09:02:48;100229.69;;;21.06;95.28
75192;BME280;63771;52.580;9.734;2023-07-29T09:05:13;100221.19;;;21.10;95.08
75192;BME280;63771;52.580;9.734;2023-07-29T09:07:39;100225.56;;;21.13;95.07
75192;BME280;63771;52.580;9.734;2023-07-29T09:10:08;100230.03;;;21.17;94.10
75192;BME280;63771;52.580;9.734;2023-07-29T09:12:35;100229.22;;;21.19;94.22
75192;BME280;63771;52.580;9.734;2023-07-29T09:15:00;100228.41;;;21.20;93.14
75192;BME280;63771;52.580;9.734;2023-07-29T09:17:26;100224.16;;;21.22;93.22
75192;BME280;63771;52.580;9.734;2023-07-29T09:19:51;100218.13;;;21.23;92.24
75192;BME280;63771;52.580;9.734;2023-07-29T09:22:18;100217.25;;;21.23;92.34
75192;BME280;63771;52.580;9.734;2023-07-29T09:24:43;100209.50;;;21.24;91.77
75192;BME280;63771;52.580;9.734;2023-07-29T09:27:10;100216.47;;;21.25;92.77
75192;BME280;63771;52.580;9.734;2023-07-29T09:29:48;100232.03;;;21.25;93.06
75192;BME280;63771;52.580;9.734;2023-07-29T09:32:20;100217.53;;;21.30;92.77
75192;BME280;63771;52.580;9.734;2023-07-29T09:34:46;100214.22;;;21.36;93.91
75192;BME280;63771;52.580;9.734;2023-07-29T09:37:21;100215.28;;;21.43;92.77
75192;BME280;63771;52.580;9.734;2023-07-29T09:39:47;100212.03;;;21.50;91.38
75192;BME280;63771;52.580;9.734;2023-07-29T09:42:20;100205.31;;;21.56;92.67
75192;BME280;63771;52.580;9.734;2023-07-29T09:44:46;100198.59;;;21.63;92.92
75192;BME280;63771;52.580;9.734;2023-07-29T09:47:26;100198.66;;;21.66;90.19
75192;BME280;63771;52.580;9.734;2023-07-29T09:49:52;100207.41;;;21.70;89.92
75192;BME280;63771;52.580;9.734;2023-07-29T09:52:19;100212.31;;;21.59;87.65
75192;BME280;63771;52.580;9.734;2023-07-29T09:54:45;100217.31;;;21.53;89.06
75192;BME280;63771;52.580;9.734;2023-07-29T09:57:13;100229.03;;;21.40;91.07
75192;BME280;63771;52.580;9.734;2023-07-29T09:59:39;100219.28;;;21.31;93.22
75192;BME280;63771;52.580;9.734;2023-07-29T10:02:10;100231.44;;;21.07;88.19
75192;BME280;63771;52.580;9.734;2023-07-29T10:04:38;100216.44;;;20.97;89.28
75192;BME280;63771;52.580;9.734;2023-07-29T10:07:03;100217.38;;;20.99;91.22
75192;BME280;63771;52.580;9.734;2023-07-29T10:09:30;100223.53;;;21.02;91.87
75192;BME280;63771;52.580;9.734;2023-07-29T10:11:57;100220.03;;;21.02;92.55
75192;BME280;63771;52.580;9.734;2023-07-29T10:14:22;100219.16;;;21.01;91.82
75192;BME280;63771;52.580;9.734;2023-07-29T10:16:49;100210.50;;;21.01;92.65
75192;BME280;63771;52.580;9.734;2023-07-29T10:19:15;100207.19;;;21.05;91.96
75192;BME280;63771;52.580;9.734;2023-07-29T10:21:42;100214.28;;;21.10;94.16
75192;BME280;63771;52.580;9.734;2023-07-29T10:24:15;100200.59;;;21.16;95.33
75192;BME280;63771;52.580;9.734;2023-07-29T10:26:43;100204.41;;;21.27;93.63
75192;BME280;63771;52.580;9.734;2023-07-29T10:29:12;100210.66;;;21.32;92.84
75192;BME280;63771;52.580;9.734;2023-07-29T10:31:39;100202.88;;;21.32;92.52
75192;BME280;63771;52.580;9.734;2023-07-29T10:34:05;100220.31;;;21.36;90.68
75192;BME280;63771;52.580;9.734;2023-07-29T10:36:31;100218.75;;;21.43;93.06
75192;BME280;63771;52.580;9.734;2023-07-29T10:38:57;100221.31;;;21.42;85.90
75192;BME280;63771;52.580;9.734;2023-07-29T10:41:22;100227.34;;;21.41;85.96
75192;BME280;63771;52.580;9.734;2023-07-29T10:43:48;100227.13;;;21.34;82.87
75192;BME280;63771;52.580;9.734;2023-07-29T10:46:18;100230.53;;;21.32;83.15
75192;BME280;63771;52.580;9.734;2023-07-29T10:48:52;100222.63;;;21.29;83.61
75192;BME280;63771;52.580;9.734;2023-07-29T10:54:00;100227.66;;;21.24;83.57
75192;BME280;63771;52.580;9.734;2023-07-29T10:56:30;100221.66;;;21.25;84.58
75192;BME280;63771;52.580;9.734;2023-07-29T10:59:22;100219.06;;;21.25;84.43
75192;BME280;63771;52.580;9.734;2023-07-29T11:01:54;100214.81;;;21.29;81.32
75192;BME280;63771;52.580;9.734;2023-07-29T11:04:28;100221.19;;;21.37;82.07
75192;BME280;63771;52.580;9.734;2023-07-29T11:12:43;100217.31;;;21.53;77.93
75192;BME280;63771;52.580;9.734;2023-07-29T11:17:46;100210.38;;;21.52;78.87
75192;BME280;63771;52.580;9.734;2023-07-29T11:20:13;100209.66;;;21.57;78.52
75192;BME280;63771;52.580;9.734;2023-07-29T11:22:39;100207.28;;;21.65;77.62
75192;BME280;63771;52.580;9.734;2023-07-29T11:25:07;100210.13;;;21.73;79.98
75192;BME280;63771;52.580;9.734;2023-07-29T11:27:32;100205.13;;;21.80;78.86
75192;BME280;63771;52.580;9.734;2023-07-29T11:30:03;100210.41;;;21.83;77.05
75192;BME280;63771;52.580;9.734;2023-07-29T11:32:30;100201.81;;;21.86;77.10
75192;BME280;63771;52.580;9.734;2023-07-29T11:34:57;100207.06;;;21.87;70.11
75192;BME280;63771;52.580;9.734;2023-07-29T11:37:22;100207.28;;;21.95;71.26
75192;BME280;63771;52.580;9.734;2023-07-29T11:39:47;100209.19;;;22.02;72.79
75192;BME280;63771;52.580;9.734;2023-07-29T11:42:14;100203.28;;;22.08;71.49
75192;BME280;63771;52.580;9.734;2023-07-29T11:44:39;100206.03;;;22.12;70.47
75192;BME280;63771;52.580;9.734;2023-07-29T11:47:08;100208.91;;;22.22;73.33
75192;BME280;63771;52.580;9.734;2023-07-29T11:49:34;100215.66;;;22.15;67.12
75192;BME280;63771;52.580;9.734;2023-07-29T11:52:01;100221.59;;;22.11;68.71
75192;BME280;63771;52.580;9.734;2023-07-29T11:54:27;100218.88;;;22.08;65.64
75192;BME280;63771;52.580;9.734;2023-07-29T11:56:52;100213.81;;;22.11;64.32
75192;BME280;63771;52.580;9.734;2023-07-29T11:59:18;100214.84;;;22.18;65.01
75192;BME280;63771;52.580;9.734;2023-07-29T12:01:45;100226.47;;;22.30;66.61
75192;BME280;63771;52.580;9.734;2023-07-29T12:04:10;100225.63;;;22.31;64.24
75192;BME280;63771;52.580;9.734;2023-07-29T12:06:37;100232.56;;;22.32;66.11
75192;BME280;63771;52.580;9.734;2023-07-29T12:09:03;100252.19;;;22.21;66.21
75192;BME280;63771;52.580;9.734;2023-07-29T12:11:28;100246.03;;;22.18;64.88
75192;BME280;63771;52.580;9.734;2023-07-29T12:13:54;100239.88;;;22.14;65.66
75192;BME280;63771;52.580;9.734;2023-07-29T12:16:19;100238.09;;;22.13;63.78
75192;BME280;63771;52.580;9.734;2023-07-29T12:18:44;100239.00;;;22.13;63.88
75192;BME280;63771;52.580;9.734;2023-07-29T12:21:10;100234.69;;;22.14;66.12
75192;BME280;63771;52.580;9.734;2023-07-29T12:23:36;100236.50;;;22.18;63.66
75192;BME280;63771;52.580;9.734;2023-07-29T12:26:01;100235.75;;;22.22;63.33
75192;BME280;63771;52.580;9.734;2023-07-29T12:28:27;100242.97;;;22.32;65.17
75192;BME280;63771;52.580;9.734;2023-07-29T12:30:55;100236.25;;;22.40;64.04
75192;BME280;63771;52.580;9.734;2023-07-29T12:33:35;100235.56;;;22.48;62.72
75192;BME280;63771;52.580;9.734;2023-07-29T12:36:01;100232.13;;;22.49;61.52
75192;BME280;63771;52.580;9.734;2023-07-29T12:38:26;100239.06;;;22.50;60.65
75192;BME280;63771;52.580;9.734;2023-07-29T12:40:52;100242.69;;;22.55;60.48
75192;BME280;63771;52.580;9.734;2023-07-29T12:43:18;100235.09;;;22.62;61.79
75192;BME280;63771;52.580;9.734;2023-07-29T12:45:43;100229.06;;;22.65;61.48
75192;BME280;63771;52.580;9.734;2023-07-29T12:48:10;100225.84;;;22.75;62.76
75192;BME280;63771;52.580;9.734;2023-07-29T12:50:36;100237.31;;;22.82;60.42
75192;BME280;63771;52.580;9.734;2023-07-29T12:53:01;100233.78;;;22.80;59.86